sensor_id;sensor_type;location;lat;lon;timestamp;pressure;altitude;pressure_sealevel;temperature
19948;BMP180;10135;50.702;7.276;2022-11-20T06:32:01;98922.00;;;8.50
19948;BMP180;10135;50.702;7.276;2022-11-20T06:34:02;98912.00;;;8.50
19948;BMP180;10135;50.702;7.276;2022-11-20T06:36:04;98917.00;;;8.50
19948;BMP180;10135;50.702;7.276;2022-11-20T06:38:04;98916.00;;;8.50
19948;BMP180;10135;50.702;7.276;2022-11-20T06:40:06;98918.00;;;8.50
19948;BMP180;10135;50.702;7.276;2022-11-20T06:42:08;98913.00;;;8.40
19948;BMP180;10135;50.702;7.276;2022-11-20T06:44:08;98917.00;;;8.40
19948;BMP180;10135;50.702;7.276;2022-11-20T06:46:11;98912.00;;;8.40
19948;BMP180;10135;50.702;7.276;2022-11-20T06:48:12;98910.00;;;8.30
19948;BMP180;10135;50.702;7.276;2022-11-20T06:50:13;98917.00;;;8.30
19948;BMP180;10135;50.702;7.276;2022-11-20T06:52:14;98913.00;;;8.30
19948;BMP180;10135;50.702;7.276;2022-11-20T06:54:14;98915.00;;;8.30
19948;BMP180;10135;50.702;7.276;2022-11-20T06:56:15;98924.00;;;8.30
19948;BMP180;10135;50.702;7.276;2022-11-20T06:58:17;98929.00;;;8.20
19948;BMP180;10135;50.702;7.276;2022-11-20T07:00:17;98937.00;;;8.20
19948;BMP180;10135;50.702;7.276;2022-11-20T07:02:18;98943.00;;;8.30
19948;BMP180;10135;50.702;7.276;2022-11-20T07:04:19;98939.00;;;8.30
19948;BMP180;10135;50.702;7.276;2022-11-20T07:06:19;98935.00;;;8.20
19948;BMP180;10135;50.702;7.276;2022-11-20T07:08:20;98942.00;;;8.20
19948;BMP180;10135;50.702;7.276;2022-11-20T07:10:20;98940.00;;;8.20
19948;BMP180;10135;50.702;7.276;2022-11-20T07:12:21;98941.00;;;8.20
19948;BMP180;10135;50.702;7.276;2022-11-20T07:14:22;98949.00;;;8.30
19948;BMP180;10135;50.702;7.276;2022-11-20T07:16:22;98952.00;;;8.20
19948;BMP180;10135;50.702;7.276;2022-11-20T07:18:23;98949.00;;;8.20
19948;BMP180;10135;50.702;7.276;2022-11-20T07:20:24;98952.00;;;8.20
19948;BMP180;10135;50.702;7.276;2022-11-20T07:22:24;98948.00;;;8.20
19948;BMP180;10135;50.702;7.276;2022-11-20T07:24:25;98959.00;;;8.20
19948;BMP180;10135;50.702;7.276;2022-11-20T07:26:25;98960.00;;;8.20
19948;BMP180;10135;50.702;7.276;2022-11-20T07:28:26;98956.00;;;8.20
19948;BMP180;10135;50.702;7.276;2022-11-20T07:30:28;98957.00;;;8.20
19948;BMP180;10135;50.702;7.276;2022-11-20T07:32:28;98961.00;;;8.20
19948;BMP180;10135;50.702;7.276;2022-11-20T07:34:29;98965.00;;;8.20
19948;BMP180;10135;50.702;7.276;2022-11-20T07:36:30;98955.00;;;8.20
19948;BMP180;10135;50.702;7.276;2022-11-20T07:38:31;98960.00;;;8.20
19948;BMP180;10135;50.702;7.276;2022-11-20T07:40:31;98968.00;;;8.20
19948;BMP180;10135;50.702;7.276;2022-11-20T07:42:32;98967.00;;;8.30
19948;BMP180;10135;50.702;7.276;2022-11-20T07:44:33;98966.00;;;8.20
19948;BMP180;10135;50.702;7.276;2022-11-20T07:46:33;98958.00;;;8.30
19948;BMP180;10135;50.702;7.276;2022-11-20T07:48:34;98960.00;;;8.30
19948;BMP180;10135;50.702;7.276;2022-11-20T07:50:35;98959.00;;;8.30
19948;BMP180;10135;50.702;7.276;2022-11-20T07:52:35;98966.00;;;8.30
19948;BMP180;10135;50.702;7.276;2022-11-20T07:54:36;98958.00;;;8.30
19948;BMP180;10135;50.702;7.276;2022-11-20T07:56:36;98955.00;;;8.40
19948;BMP180;10135;50.702;7.276;2022-11-20T07:58:37;98958.00;;;8.40
19948;BMP180;10135;50.702;7.276;2022-11-20T08:00:38;98961.00;;;8.40
19948;BMP180;10135;50.702;7.276;2022-11-20T08:02:40;98957.00;;;8.40
19948;BMP180;10135;50.702;7.276;2022-11-20T08:04:41;98960.00;;;8.50
19948;BMP180;10135;50.702;7.276;2022-11-20T08:06:42;98967.00;;;8.50
19948;BMP180;10135;50.702;7.276;2022-11-20T08:08:42;98970.00;;;8.50
19948;BMP180;10135;50.702;7.276;2022-11-20T08:10:43;98970.00;;;8.60
19948;BMP180;10135;50.702;7.276;2022-11-20T08:12:49;98968.00;;;8.60
19948;BMP180;10135;50.702;7.276;2022-11-20T08:15:09;98957.00;;;8.60
19948;BMP180;10135;50.702;7.276;2022-11-20T08:17:10;98959.00;;;8.60
19948;BMP180;10135;50.702;7.276;2022-11-20T08:19:12;98954.00;;;8.60
19948;BMP180;10135;50.702;7.276;2022-11-20T08:21:13;98963.00;;;8.70
19948;BMP180;10135;50.702;7.276;2022-11-20T08:23:14;98950.00;;;8.70
19948;BMP180;10135;50.702;7.276;2022-11-20T08:25:14;98961.00;;;8.70
19948;BMP180;10135;50.702;7.276;2022-11-20T08:27:15;98967.00;;;8.80
19948;BMP180;10135;50.702;7.276;2022-11-20T08:29:16;98961.00;;;8.80
19948;BMP180;10135;50.702;7.276;2022-11-20T08:31:16;98971.00;;;8.80
19948;BMP180;10135;50.702;7.276;2022-11-20T08:33:18;98965.00;;;8.80
19948;BMP180;10135;50.702;7.276;2022-11-20T08:35:19;98967.00;;;8.80
19948;BMP180;10135;50.702;7.276;2022-11-20T08:37:19;98966.00;;;8.90
19948;BMP180;10135;50.702;7.276;2022-11-20T08:39:20;98962.00;;;8.90
19948;BMP180;10135;50.702;7.276;2022-11-20T08:41:21;98956.00;;;8.90
19948;BMP180;10135;50.702;7.276;2022-11-20T08:43:28;98960.00;;;8.90
19948;BMP180;10135;50.702;7.276;2022-11-20T08:45:29;98961.00;;;9.00
19948;BMP180;10135;50.702;7.276;2022-11-20T08:47:29;98959.00;;;9.00
19948;BMP180;10135;50.702;7.276;2022-11-20T08:49:30;98963.00;;;9.00
19948;BMP180;10135;50.702;7.276;2022-11-20T08:51:31;98963.00;;;9.00
19948;BMP180;10135;50.702;7.276;2022-11-20T08:53:31;98963.00;;;9.10
19948;BMP180;10135;50.702;7.276;2022-11-20T08:55:33;98957.00;;;9.10
19948;BMP180;10135;50.702;7.276;2022-11-20T08:57:36;98964.00;;;9.10
19948;BMP180;10135;50.702;7.276;2022-11-20T08:59:37;98960.00;;;9.10
19948;BMP180;10135;50.702;7.276;2022-11-20T09:01:38;98965.00;;;9.10
19948;BMP180;10135;50.702;7.276;2022-11-20T09:03:39;98962.00;;;9.20
19948;BMP180;10135;50.702;7.276;2022-11-20T09:05:40;98964.00;;;9.20
19948;BMP180;10135;50.702;7.276;2022-11-20T09:07:40;98959.00;;;9.20
19948;BMP180;10135;50.702;7.276;2022-11-20T09:09:42;98957.00;;;9.20
19948;BMP180;10135;50.702;7.276;2022-11-20T09:11:43;98958.00;;;9.30
19948;BMP180;10135;50.702;7.276;2022-11-20T09:13:43;98965.00;;;9.30
19948;BMP180;10135;50.702;7.276;2022-11-20T09:15:44;98967.00;;;9.30
19948;BMP180;10135;50.702;7.276;2022-11-20T09:17:57;98958.00;;;9.30
19948;BMP180;10135;50.702;7.276;2022-11-20T09:19:58;98962.00;;;9.40
19948;BMP180;10135;50.702;7.276;2022-11-20T09:21:59;98958.00;;;9.40
19948;BMP180;10135;50.702;7.276;2022-11-20T09:24:00;98954.00;;;9.40
19948;BMP180;10135;50.702;7.276;2022-11-20T09:26:10;98952.00;;;9.40
19948;BMP180;10135;50.702;7.276;2022-11-20T09:28:11;98953.00;;;9.40
19948;BMP180;10135;50.702;7.276;2022-11-20T09:30:16;98958.00;;;9.40
19948;BMP180;10135;50.702;7.276;2022-11-20T09:32:17;98955.00;;;9.40
19948;BMP180;10135;50.702;7.276;2022-11-20T09:34:17;98960.00;;;9.40
19948;BMP180;10135;50.702;7.276;2022-11-20T09:36:18;98956.00;;;9.40
19948;BMP180;10135;50.702;7.276;2022-11-20T09:38:19;98962.00;;;9.50
19948;BMP180;10135;50.702;7.276;2022-11-20T09:40:23;98956.00;;;9.50
19948;BMP180;10135;50.702;7.276;2022-11-20T09:42:45;98953.00;;;9.40
19948;BMP180;10135;50.702;7.276;2022-11-20T09:50:31;98950.00;;;9.50
19948;BMP180;10135;50.702;7.276;2022-11-20T09:54:54;98940.00;;;9.50
19948;BMP180;10135;50.702;7.276;2022-11-20T09:57:14;98943.00;;;9.50
19948;BMP180;10135;50.702;7.276;2022-11-20T09:59:38;98938.00;;;9.50
19948;BMP180;10135;50.702;7.276;2022-11-20T10:01:40;98936.00;;;9.60
19948;BMP180;10135;50.702;7.276;2022-11-20T10:04:04;98938.00;;;9.50
19948;BMP180;10135;50.702;7.276;2022-11-20T10:06:13;98937.00;;;9.60
19948;BMP180;10135;50.702;7.276;2022-11-20T10:08:32;98928.00;;;9.60
19948;BMP180;10135;50.702;7.276;2022-11-20T10:23:33;98922.00;;;9.90
19948;BMP180;10135;50.702;7.276;2022-11-20T10:26:02;98922.00;;;10.00
19948;BMP180;10135;50.702;7.276;2022-11-20T10:28:38;98906.00;;;10.00
19948;BMP180;10135;50.702;7.276;2022-11-20T10:30:45;98913.00;;;10.10
19948;BMP180;10135;50.702;7.276;2022-11-20T10:32:53;98909.00;;;10.10
19948;BMP180;10135;50.702;7.276;2022-11-20T10:37:20;98906.00;;;10.10
19948;BMP180;10135;50.702;7.276;2022-11-20T10:39:53;98901.00;;;10.10
19948;BMP180;10135;50.702;7.276;2022-11-20T10:41:56;98898.00;;;10.20
19948;BMP180;10135;50.702;7.276;2022-11-20T10:46:45;98885.00;;;10.20
19948;BMP180;10135;50.702;7.276;2022-11-20T10:48:46;98880.00;;;10.20
19948;BMP180;10135;50.702;7.276;2022-11-20T10:53:58;98881.00;;;10.20
19948;BMP180;10135;50.702;7.276;2022-11-20T10:56:12;98871.00;;;10.20
19948;BMP180;10135;50.702;7.276;2022-11-20T10:58:37;98876.00;;;10.20
19948;BMP180;10135;50.702;7.276;2022-11-20T11:00:38;98873.00;;;10.20
19948;BMP180;10135;50.702;7.276;2022-11-20T11:02:47;98867.00;;;10.20
19948;BMP180;10135;50.702;7.276;2022-11-20T11:04:53;98870.00;;;10.20
19948;BMP180;10135;50.702;7.276;2022-11-20T11:07:06;98861.00;;;10.20
19948;BMP180;10135;50.702;7.276;2022-11-20T11:09:17;98860.00;;;10.20
19948;BMP180;10135;50.702;7.276;2022-11-20T11:11:27;98852.00;;;10.20
19948;BMP180;10135;50.702;7.276;2022-11-20T11:13:31;98844.00;;;10.30
19948;BMP180;10135;50.702;7.276;2022-11-20T11:15:40;98851.00;;;10.30
19948;BMP180;10135;50.702;7.276;2022-11-20T11:17:47;98849.00;;;10.30
19948;BMP180;10135;50.702;7.276;2022-11-20T11:20:15;98841.00;;;10.30
19948;BMP180;10135;50.702;7.276;2022-11-20T11:22:18;98845.00;;;10.30
19948;BMP180;10135;50.702;7.276;2022-11-20T11:24:28;98844.00;;;10.20
19948;BMP180;10135;50.702;7.276;2022-11-20T11:26:30;98844.00;;;10.30
19948;BMP180;10135;50.702;7.276;2022-11-20T11:28:31;98837.00;;;10.30
19948;BMP180;10135;50.702;7.276;2022-11-20T11:30:43;98827.00;;;10.30
19948;BMP180;10135;50.702;7.276;2022-11-20T11:32:45;98826.00;;;10.30
19948;BMP180;10135;50.702;7.276;2022-11-20T11:35:05;98818.00;;;10.30
19948;BMP180;10135;50.702;7.276;2022-11-20T11:37:21;98816.00;;;10.30
19948;BMP180;10135;50.702;7.276;2022-11-20T11:39:23;98812.00;;;10.40
19948;BMP180;10135;50.702;7.276;2022-11-20T11:41:31;98809.00;;;10.40
19948;BMP180;10135;50.702;7.276;2022-11-20T11:43:36;98806.00;;;10.40
19948;BMP180;10135;50.702;7.276;2022-11-20T11:45:56;98806.00;;;10.40
19948;BMP180;10135;50.702;7.276;2022-11-20T11:48:03;98805.00;;;10.40
19948;BMP180;10135;50.702;7.276;2022-11-20T11:52:17;98801.00;;;10.50
19948;BMP180;10135;50.702;7.276;2022-11-20T11:54:30;98804.00;;;10.50
19948;BMP180;10135;50.702;7.276;2022-11-20T11:56:33;98794.00;;;10.50
19948;BMP180;10135;50.702;7.276;2022-11-20T11:58:53;98800.00;;;10.50
19948;BMP180;10135;50.702;7.276;2022-11-20T12:01:32;98801.00;;;10.50
19948;BMP180;10135;50.702;7.276;2022-11-20T12:03:39;98792.00;;;10.50
19948;BMP180;10135;50.702;7.276;2022-11-20T12:06:32;98785.00;;;10.60
19948;BMP180;10135;50.702;7.276;2022-11-20T12:10:56;98777.00;;;10.60
19948;BMP180;10135;50.702;7.276;2022-11-20T12:13:12;98779.00;;;10.60
19948;BMP180;10135;50.702;7.276;2022-11-20T12:15:29;98767.00;;;10.60
19948;BMP180;10135;50.702;7.276;2022-11-20T12:17:30;98768.00;;;10.60
19948;BMP180;10135;50.702;7.276;2022-11-20T12:19:34;98763.00;;;10.60
19948;BMP180;10135;50.702;7.276;2022-11-20T12:30:01;98753.00;;;10.70
19948;BMP180;10135;50.702;7.276;2022-11-20T12:37:19;98739.00;;;10.80
19948;BMP180;10135;50.702;7.276;2022-11-20T12:39:18;98735.00;;;10.80
19948;BMP180;10135;50.702;7.276;2022-11-20T12:41:47;98733.00;;;10.80
19948;BMP180;10135;50.702;7.276;2022-11-20T12:49:58;98727.00;;;10.90
19948;BMP180;10135;50.702;7.276;2022-11-20T12:52:38;98725.00;;;10.90
19948;BMP180;10135;50.702;7.276;2022-11-20T12:54:52;98724.00;;;10.90
19948;BMP180;10135;50.702;7.276;2022-11-20T12:57:41;98712.00;;;10.90
19948;BMP180;10135;50.702;7.276;2022-11-20T13:05:21;98706.00;;;10.90
19948;BMP180;10135;50.702;7.276;2022-11-20T13:07:25;98702.00;;;10.90
19948;BMP180;10135;50.702;7.276;2022-11-20T13:09:28;98707.00;;;10.90
19948;BMP180;10135;50.702;7.276;2022-11-20T13:14:45;98687.00;;;10.90
19948;BMP180;10135;50.702;7.276;2022-11-20T13:19:25;98688.00;;;11.00
19948;BMP180;10135;50.702;7.276;2022-11-20T13:21:40;98679.00;;;11.00
19948;BMP180;10135;50.702;7.276;2022-11-20T13:23:41;98663.00;;;11.00
19948;BMP180;10135;50.702;7.276;2022-11-20T13:25:42;98662.00;;;11.00
19948;BMP180;10135;50.702;7.276;2022-11-20T13:27:49;98670.00;;;11.00
19948;BMP180;10135;50.702;7.276;2022-11-20T13:30:14;98658.00;;;11.00
19948;BMP180;10135;50.702;7.276;2022-11-20T13:32:20;98652.00;;;11.00
19948;BMP180;10135;50.702;7.276;2022-11-20T13:34:27;98654.00;;;11.10
19948;BMP180;10135;50.702;7.276;2022-11-20T13:36:29;98657.00;;;11.10
19948;BMP180;10135;50.702;7.276;2022-11-20T13:38:49;98653.00;;;11.10
19948;BMP180;10135;50.702;7.276;2022-11-20T13:40:57;98655.00;;;11.10
19948;BMP180;10135;50.702;7.276;2022-11-20T13:43:37;98645.00;;;11.10
19948;BMP180;10135;50.702;7.276;2022-11-20T13:45:38;98642.00;;;11.20
19948;BMP180;10135;50.702;7.276;2022-11-20T13:47:48;98643.00;;;11.20
19948;BMP180;10135;50.702;7.276;2022-11-20T13:49:52;98631.00;;;11.20
19948;BMP180;10135;50.702;7.276;2022-11-20T13:52:30;98629.00;;;11.20
19948;BMP180;10135;50.702;7.276;2022-11-20T13:54:58;98629.00;;;11.20
19948;BMP180;10135;50.702;7.276;2022-11-20T13:59:58;98617.00;;;11.20
19948;BMP180;10135;50.702;7.276;2022-11-20T14:02:02;98614.00;;;11.20
19948;BMP180;10135;50.702;7.276;2022-11-20T14:04:08;98610.00;;;11.20
19948;BMP180;10135;50.702;7.276;2022-11-20T14:06:31;98607.00;;;11.20
19948;BMP180;10135;50.702;7.276;2022-11-20T14:08:40;98600.00;;;11.20
19948;BMP180;10135;50.702;7.276;2022-11-20T14:10:41;98598.00;;;11.20
19948;BMP180;10135;50.702;7.276;2022-11-20T14:12:42;98588.00;;;11.20
19948;BMP180;10135;50.702;7.276;2022-11-20T14:14:54;98596.00;;;11.20
19948;BMP180;10135;50.702;7.276;2022-11-20T14:17:20;98598.00;;;11.30
19948;BMP180;10135;50.702;7.276;2022-11-20T14:19:29;98585.00;;;11.30
19948;BMP180;10135;50.702;7.276;2022-11-20T14:21:31;98587.00;;;11.30
19948;BMP180;10135;50.702;7.276;2022-11-20T14:23:31;98581.00;;;11.30
19948;BMP180;10135;50.702;7.276;2022-11-20T14:25:32;98575.00;;;11.30
19948;BMP180;10135;50.702;7.276;2022-11-20T14:27:36;98576.00;;;11.30
19948;BMP180;10135;50.702;7.276;2022-11-20T14:29:38;98575.00;;;11.30
19948;BMP180;10135;50.702;7.276;2022-11-20T14:31:42;98571.00;;;11.30
19948;BMP180;10135;50.702;7.276;2022-11-20T14:33:44;98567.00;;;11.30
19948;BMP180;10135;50.702;7.276;2022-11-20T14:35:54;98567.00;;;11.30
19948;BMP180;10135;50.702;7.276;2022-11-20T14:37:56;98567.00;;;11.30
19948;BMP180;10135;50.702;7.276;2022-11-20T14:39:57;98571.00;;;11.30
19948;BMP180;10135;50.702;7.276;2022-11-20T14:41:59;98563.00;;;11.30
19948;BMP180;10135;50.702;7.276;2022-11-20T14:44:00;98556.00;;;11.30
19948;BMP180;10135;50.702;7.276;2022-11-20T14:46:06;98552.00;;;11.30
19948;BMP180;10135;50.702;7.276;2022-11-20T14:48:10;98552.00;;;11.30
19948;BMP180;10135;50.702;7.276;2022-11-20T14:50:28;98545.00;;;11.30
19948;BMP180;10135;50.702;7.276;2022-11-20T14:52:29;98550.00;;;11.40
19948;BMP180;10135;50.702;7.276;2022-11-20T14:54:31;98542.00;;;11.30
19948;BMP180;10135;50.702;7.276;2022-11-20T14:56:33;98540.00;;;11.30
19948;BMP180;10135;50.702;7.276;2022-11-20T14:58:34;98541.00;;;11.40
19948;BMP180;10135;50.702;7.276;2022-11-20T15:00:35;98544.00;;;11.40
19948;BMP180;10135;50.702;7.276;2022-11-20T15:02:43;98549.00;;;11.40
19948;BMP180;10135;50.702;7.276;2022-11-20T15:04:50;98529.00;;;11.40
19948;BMP180;10135;50.702;7.276;2022-11-20T15:06:58;98538.00;;;11.40
19948;BMP180;10135;50.702;7.276;2022-11-20T15:08:59;98535.00;;;11.50
19948;BMP180;10135;50.702;7.276;2022-11-20T15:11:00;98534.00;;;11.40
19948;BMP180;10135;50.702;7.276;2022-11-20T15:13:06;98536.00;;;11.40
19948;BMP180;10135;50.702;7.276;2022-11-20T15:15:17;98525.00;;;11.40
19948;BMP180;10135;50.702;7.276;2022-11-20T15:17:19;98535.00;;;11.50
19948;BMP180;10135;50.702;7.276;2022-11-20T15:19:25;98537.00;;;11.50
19948;BMP180;10135;50.702;7.276;2022-11-20T15:21:26;98522.00;;;11.50
19948;BMP180;10135;50.702;7.276;2022-11-20T15:23:28;98528.00;;;11.40
19948;BMP180;10135;50.702;7.276;2022-11-20T15:25:29;98528.00;;;11.40
19948;BMP180;10135;50.702;7.276;2022-11-20T15:27:30;98527.00;;;11.40
19948;BMP180;10135;50.702;7.276;2022-11-20T15:29:31;98526.00;;;11.40
19948;BMP180;10135;50.702;7.276;2022-11-20T15:31:32;98534.00;;;11.40
19948;BMP180;10135;50.702;7.276;2022-11-20T15:33:33;98531.00;;;11.40
19948;BMP180;10135;50.702;7.276;2022-11-20T15:35:34;98535.00;;;11.40
19948;BMP180;10135;50.702;7.276;2022-11-20T15:37:35;98539.00;;;11.40
19948;BMP180;10135;50.702;7.276;2022-11-20T15:39:36;98525.00;;;11.40
19948;BMP180;10135;50.702;7.276;2022-11-20T15:41:37;98527.00;;;11.40
19948;BMP180;10135;50.702;7.276;2022-11-20T15:43:37;98521.00;;;11.40
19948;BMP180;10135;50.702;7.276;2022-11-20T15:46:09;98527.00;;;11.30
19948;BMP180;10135;50.702;7.276;2022-11-20T15:48:16;98523.00;;;11.30
19948;BMP180;10135;50.702;7.276;2022-11-20T15:50:18;98515.00;;;11.30
19948;BMP180;10135;50.702;7.276;2022-11-20T15:52:19;98510.00;;;11.30
19948;BMP180;10135;50.702;7.276;2022-11-20T15:54:22;98509.00;;;11.30
19948;BMP180;10135;50.702;7.276;2022-11-20T15:56:24;98513.00;;;11.30
19948;BMP180;10135;50.702;7.276;2022-11-20T15:58:24;98496.00;;;11.20
19948;BMP180;10135;50.702;7.276;2022-11-20T16:00:25;98487.00;;;11.20
19948;BMP180;10135;50.702;7.276;2022-11-20T16:02:26;98476.00;;;11.20
19948;BMP180;10135;50.702;7.276;2022-11-20T16:04:26;98479.00;;;11.20
19948;BMP180;10135;50.702;7.276;2022-11-20T16:06:27;98467.00;;;11.20
19948;BMP180;10135;50.702;7.276;2022-11-20T16:08:28;98467.00;;;11.20
19948;BMP180;10135;50.702;7.276;2022-11-20T16:10:28;98461.00;;;11.20
19948;BMP180;10135;50.702;7.276;2022-11-20T16:12:29;98458.00;;;11.20
19948;BMP180;10135;50.702;7.276;2022-11-20T16:14:48;98453.00;;;11.20
19948;BMP180;10135;50.702;7.276;2022-11-20T16:17:07;98450.00;;;11.10
19948;BMP180;10135;50.702;7.276;2022-11-20T16:19:12;98445.00;;;11.10
19948;BMP180;10135;50.702;7.276;2022-11-20T16:21:13;98447.00;;;11.10
19948;BMP180;10135;50.702;7.276;2022-11-20T16:23:14;98453.00;;;11.10
19948;BMP180;10135;50.702;7.276;2022-11-20T16:25:15;98443.00;;;11.10
19948;BMP180;10135;50.702;7.276;2022-11-20T16:27:16;98444.00;;;11.10
19948;BMP180;10135;50.702;7.276;2022-11-20T16:29:17;98434.00;;;11.10
19948;BMP180;10135;50.702;7.276;2022-11-20T16:31:19;98428.00;;;11.00
19948;BMP180;10135;50.702;7.276;2022-11-20T16:33:20;98426.00;;;11.00
19948;BMP180;10135;50.702;7.276;2022-11-20T16:35:20;98421.00;;;11.00
19948;BMP180;10135;50.702;7.276;2022-11-20T16:37:21;98418.00;;;11.00
19948;BMP180;10135;50.702;7.276;2022-11-20T16:39:22;98420.00;;;11.00
19948;BMP180;10135;50.702;7.276;2022-11-20T16:41:23;98409.00;;;10.90
19948;BMP180;10135;50.702;7.276;2022-11-20T16:43:25;98403.00;;;10.90
19948;BMP180;10135;50.702;7.276;2022-11-20T16:45:26;98411.00;;;10.90
19948;BMP180;10135;50.702;7.276;2022-11-20T16:47:27;98402.00;;;10.90
19948;BMP180;10135;50.702;7.276;2022-11-20T16:49:27;98404.00;;;10.90
19948;BMP180;10135;50.702;7.276;2022-11-20T16:51:31;98394.00;;;10.90
19948;BMP180;10135;50.702;7.276;2022-11-20T16:53:32;98395.00;;;10.90
19948;BMP180;10135;50.702;7.276;2022-11-20T16:55:33;98396.00;;;10.90
19948;BMP180;10135;50.702;7.276;2022-11-20T16:57:34;98389.00;;;10.90
19948;BMP180;10135;50.702;7.276;2022-11-20T16:59:35;98393.00;;;10.90
19948;BMP180;10135;50.702;7.276;2022-11-20T17:01:35;98391.00;;;10.80
19948;BMP180;10135;50.702;7.276;2022-11-20T17:03:41;98386.00;;;10.80
19948;BMP180;10135;50.702;7.276;2022-11-20T17:05:42;98376.00;;;10.80
19948;BMP180;10135;50.702;7.276;2022-11-20T17:07:42;98376.00;;;10.80
19948;BMP180;10135;50.702;7.276;2022-11-20T17:09:43;98371.00;;;10.80
19948;BMP180;10135;50.702;7.276;2022-11-20T17:11:43;98370.00;;;10.80
19948;BMP180;10135;50.702;7.276;2022-11-20T17:13:45;98367.00;;;10.80
19948;BMP180;10135;50.702;7.276;2022-11-20T17:15:46;98364.00;;;10.80
19948;BMP180;10135;50.702;7.276;2022-11-20T17:17:47;98368.00;;;10.80
19948;BMP180;10135;50.702;7.276;2022-11-20T17:19:47;98354.00;;;10.80
19948;BMP180;10135;50.702;7.276;2022-11-20T17:21:48;98352.00;;;10.80
19948;BMP180;10135;50.702;7.276;2022-11-20T17:23:49;98355.00;;;10.90
19948;BMP180;10135;50.702;7.276;2022-11-20T17:25:49;98352.00;;;10.90
19948;BMP180;10135;50.702;7.276;2022-11-20T17:27:50;98358.00;;;10.90
19948;BMP180;10135;50.702;7.276;2022-11-20T17:29:51;98345.00;;;10.90
19948;BMP180;10135;50.702;7.276;2022-11-20T17:31:54;98345.00;;;10.90
19948;BMP180;10135;50.702;7.276;2022-11-20T17:33:55;98350.00;;;10.80
19948;BMP180;10135;50.702;7.276;2022-11-20T17:35:56;98345.00;;;10.80
19948;BMP180;10135;50.702;7.276;2022-11-20T17:37:56;98339.00;;;10.90
19948;BMP180;10135;50.702;7.276;2022-11-20T17:39:57;98329.00;;;10.80
19948;BMP180;10135;50.702;7.276;2022-11-20T17:41:58;98328.00;;;10.80
19948;BMP180;10135;50.702;7.276;2022-11-20T17:44:16;98315.00;;;10.90
19948;BMP180;10135;50.702;7.276;2022-11-20T17:46:22;98306.00;;;10.80
19948;BMP180;10135;50.702;7.276;2022-11-20T17:48:23;98309.00;;;10.80
19948;BMP180;10135;50.702;7.276;2022-11-20T17:50:24;98307.00;;;10.80
19948;BMP180;10135;50.702;7.276;2022-11-20T17:52:25;98306.00;;;10.80
19948;BMP180;10135;50.702;7.276;2022-11-20T17:54:25;98302.00;;;10.80
19948;BMP180;10135;50.702;7.276;2022-11-20T17:56:31;98298.00;;;10.80
19948;BMP180;10135;50.702;7.276;2022-11-20T17:58:50;98292.00;;;10.90
19948;BMP180;10135;50.702;7.276;2022-11-20T18:00:51;98291.00;;;10.80
19948;BMP180;10135;50.702;7.276;2022-11-20T18:02:51;98282.00;;;10.80
19948;BMP180;10135;50.702;7.276;2022-11-20T18:04:52;98281.00;;;10.80
19948;BMP180;10135;50.702;7.276;2022-11-20T18:06:53;98283.00;;;10.80
19948;BMP180;10135;50.702;7.276;2022-11-20T18:08:57;98283.00;;;10.80
19948;BMP180;10135;50.702;7.276;2022-11-20T18:11:26;98266.00;;;10.80
19948;BMP180;10135;50.702;7.276;2022-11-20T18:14:17;98266.00;;;10.80
19948;BMP180;10135;50.702;7.276;2022-11-20T18:17:05;98241.00;;;10.80
19948;BMP180;10135;50.702;7.276;2022-11-20T18:26:17;98244.00;;;10.80
19948;BMP180;10135;50.702;7.276;2022-11-20T18:31:55;98236.00;;;10.80
19948;BMP180;10135;50.702;7.276;2022-11-20T18:33:58;98227.00;;;10.70
19948;BMP180;10135;50.702;7.276;2022-11-20T18:36:30;98218.00;;;10.70
19948;BMP180;10135;50.702;7.276;2022-11-20T18:42:39;98227.00;;;10.70
19948;BMP180;10135;50.702;7.276;2022-11-20T18:45:37;98209.00;;;10.70
19948;BMP180;10135;50.702;7.276;2022-11-20T18:48:10;98215.00;;;10.70
19948;BMP180;10135;50.702;7.276;2022-11-20T18:54:35;98213.00;;;10.70
19948;BMP180;10135;50.702;7.276;2022-11-20T19:00:22;98228.00;;;10.80
19948;BMP180;10135;50.702;7.276;2022-11-20T19:02:33;98224.00;;;10.80
19948;BMP180;10135;50.702;7.276;2022-11-20T19:04:33;98225.00;;;10.80
19948;BMP180;10135;50.702;7.276;2022-11-20T19:06:46;98225.00;;;10.80
19948;BMP180;10135;50.702;7.276;2022-11-20T19:08:49;98233.00;;;10.90
19948;BMP180;10135;50.702;7.276;2022-11-20T19:10:49;98233.00;;;10.90
19948;BMP180;10135;50.702;7.276;2022-11-20T19:12:50;98215.00;;;10.90
19948;BMP180;10135;50.702;7.276;2022-11-20T19:14:51;98227.00;;;10.90
19948;BMP180;10135;50.702;7.276;2022-11-20T19:16:52;98228.00;;;11.00
19948;BMP180;10135;50.702;7.276;2022-11-20T19:18:53;98219.00;;;11.00
19948;BMP180;10135;50.702;7.276;2022-11-20T19:20:53;98224.00;;;11.00
19948;BMP180;10135;50.702;7.276;2022-11-20T19:22:54;98221.00;;;11.00
19948;BMP180;10135;50.702;7.276;2022-11-20T19:24:54;98225.00;;;11.00
19948;BMP180;10135;50.702;7.276;2022-11-20T19:26:55;98225.00;;;11.10
19948;BMP180;10135;50.702;7.276;2022-11-20T19:28:56;98226.00;;;11.10
19948;BMP180;10135;50.702;7.276;2022-11-20T19:31:13;98221.00;;;11.10
19948;BMP180;10135;50.702;7.276;2022-11-20T19:33:14;98234.00;;;11.20
19948;BMP180;10135;50.702;7.276;2022-11-20T19:35:14;98219.00;;;11.20
19948;BMP180;10135;50.702;7.276;2022-11-20T19:37:15;98215.00;;;11.20
19948;BMP180;10135;50.702;7.276;2022-11-20T19:39:16;98219.00;;;11.20
19948;BMP180;10135;50.702;7.276;2022-11-20T19:41:23;98228.00;;;11.20
19948;BMP180;10135;50.702;7.276;2022-11-20T19:43:33;98212.00;;;11.20
19948;BMP180;10135;50.702;7.276;2022-11-20T19:45:34;98216.00;;;11.30
19948;BMP180;10135;50.702;7.276;2022-11-20T19:47:34;98223.00;;;11.30
19948;BMP180;10135;50.702;7.276;2022-11-20T19:49:35;98214.00;;;11.30
19948;BMP180;10135;50.702;7.276;2022-11-20T19:51:38;98209.00;;;11.30
19948;BMP180;10135;50.702;7.276;2022-11-20T19:53:40;98212.00;;;11.30
19948;BMP180;10135;50.702;7.276;2022-11-20T19:55:40;98208.00;;;11.30
19948;BMP180;10135;50.702;7.276;2022-11-20T19:57:42;98199.00;;;11.30
19948;BMP180;10135;50.702;7.276;2022-11-20T19:59:43;98208.00;;;11.30
19948;BMP180;10135;50.702;7.276;2022-11-20T20:01:43;98199.00;;;11.40
19948;BMP180;10135;50.702;7.276;2022-11-20T20:03:46;98202.00;;;11.40
19948;BMP180;10135;50.702;7.276;2022-11-20T20:05:47;98209.00;;;11.40
19948;BMP180;10135;50.702;7.276;2022-11-20T20:07:48;98211.00;;;11.40